Frankfurt-Egelsbach Airport

EDFE · Hesse, 德国

罗盘
风向 的 风向 060° Frankfurt-Egelsbach Airport 8/26
风: 5 kt, 2 beaufort

4 kt

2 kt
改变
0 1.000 2.000 3.000 4.000 5.000
没有观察到明显的云
METAR EDDF 270550Z AUTO 06005KT 9000 NSC 01/01 Q1027 TEMPO 2000 BCFG

METAR Frankfurt-Egelsbach Airport - EDFE

Frankfurt-Egelsbach Airport是,德国中的中型机场。 该机场有一条跑道: 8/26. 该领域的国际民航组织标志是EDFE.

这份报告是针对2022年11月27日 06:50, 当地时间在法兰克福机场进行的。

机场观察

风向为060°,速度为5 kt。

可见度为9 km。

有没有观察到明显的云。 没有观察到天花板。

温度为1 °C,阵风为-3 °C。 露点为1 °C,相对湿度为100%。 海平面上的气压为1027 hPa (QNH)。

发展趋势

  • 暂时的

    可变方向的风很小或没有。 可见性变为2 km。 重大天气:的补丁 多雾路段。

白天

今天,太阳从07:56升起,在16:29降落。 这适用于Frankfurt-Egelsbach Airport,世界夏令时可能有所不同。 当地时间与世界标准时间之间的时差为+1 小时。 当前,没有夏令时有效。

公司介绍

我们没有关于这个机场的公司信息。

体会

到Vliegles.nl去找飞行课程,跳伞和其他飞行体验。 浏览页面,了解Frankfurt-Egelsbach Airport附近所有可用的活动。 你也可以使用搜索功能来寻找你所在地附近的特定飞行课程、跳伞或其他飞行体验。

跑道

Id 标题 侧风 逆风 侧风 %
8/26 086°-266° 2 kt 4 kt 44 %

逆风成分最大的方向会被突出显示,并用于横风计算。 这并不一定意味着这个方向在使用。

乌云

- NSC 没有观察到明显的云

温度 & 天气

温度 1 °C
露点 1 °C
相对湿度 100%
风寒 -3 °C
Kp-index 0 (0-9)

白天

日出
07:57 (33m)
中午
12:13
日落
16:29

小工具

你想在你的网站上有一个关于Frankfurt-Egelsbach Airport的当前航空天气(METAR)的小部件吗?

显示HTML代码

我们和第三方通过cookies跟踪您在我们网站上的互联网行为。如果你继续,我们认为你同意我们的饼干政策